Pagrindinis puslapis
METAR-TAF:

METAR-TAF

Oro uostai :

Džidželis, Alžyras

platuma: 36-53N, ilguma: 005-49E, Aukštis: 2 m

Dabartinis oras

Ataskaita buvo paskelbta 17 minutes, ne 00:00 UTC
Vėjas 2 kt iš Pietų/Pietryčių
Temperatūra 20°C
Drėgmė 94%
Slėgis 1012 hPa
Matomumas 10 km arba daugiau
Išsisklaidę debesys ne aukštis 1600 ft

METAR: DAAV 010000Z 16002KT 9999 SCT016 20/19 Q1012

Laikas: 01:17 (00:17 UTC)

Prognozė

Ataskaita buvo paskelbta 1 valandą ir 17 minutes, ne 23:00 UTC
Prognozė galioja nuo 01 metu 00 UTC su 01 metu 24 UTC
Vėjas 8 kt iš Šiaurės
Matomumas: 8000 m
Išsisklaidę debesys ne aukštis 1600 ft
Išsisklaidę debesys ne aukštis 2600 ft
Tikimybė 30% :
Laikinai
nuo 01 metu 09 UTC su 01 metu 18 UTC
Mažai debesys ne aukštis 2300 ft, aukštai iškilę kamuoliniai debesys.
Tikimybė 30% :
Laikinai
nuo 01 metu 01 UTC su 01 metu 07 UTC
Matomumas: 3000 m
Su prošvaistėmis ne aukštis 1000 ft
rūkana

TAF: DAAV 302300Z 0100/0124 35008KT 8000 SCT016 SCT026 PROB30 TEMPO 0109/0118 FEW023TCU PROB30 TEMPO 0101/0107 3000 BR BKN010

Orai ataskaitas ir orų prognozės (METAR, TAF).

turimą stotys yra geltonos ir raudonos taškus žemėlapyje.

Perkelti pele per norėdami pamatyti stoties vardą.

Tada spustelėkite, norėdami matyti oro stebėjimo ir prognozės.

Norėdami pakeisti žemėlapį: spustelėkite ant žalios mygtukų su juodo kryžiaus žemyn,; žalią mygtuką su brūkšneliu, jei norite nutolinti; arba žalių rodyklių gretimoms žemėlapius.


METAR-TAF: